Mulberry River (Arkansas), Mulberry (07252000)

StateArkansasLatestGood (718 cfs)
RiverMulberry RiverRatingObservedEstimated
Updated2020-02-25 14:30 (21 minutes ago)Flood - The river is flooding. Obstacles can be treacherous or deadly. The river should be avoided at this stage for casual trips and definitely for the inexperienced. Trips should be attempted only with protective gear and equipment.Flood(none)2509
Discharge718 cfs (median: 511 cfs)High - The river is high and potentially dangerous, especially for the young and / or inexperienced. Normal stream obstacles are sometimes difficult to navigate. Extended distances can be attempted, but canoe travel may not be advisable.High(none)1129
Height2.64 feetGood - Conditions are ideal for a canoe or kayak. Boats typically will drag on fewer than one-quarter of riffles, if at all, and portages are unnecessary or rare. Normal float lengths can be attempted without a problem.Good(none)540
TrendSteady (falling over 24 hours)Low - River is low but can still be floated. Some riffles are okay but most come with significant dragging and might need a portage. Float lengths should be reduced to accommodate low flow, dragging, and portages.Low(none)160
USGSExternal icon USGS Site (External icon Google Maps)Poor - River is too low to float comfortably. Most or all riffles will drag or must be portaged and some obstacles (such as slick shelf rock) cause undue problems. Avoid the river at this stage for casual paddling trips.Poor(none)11

Trending Data

Plot Image

Trips for Mulberry River (Arkansas), Mulberry (07252000)

DateStartEndDistanceConditionDischargeHeightFishingDetails

A total of 0 rows are displayed.

Condition Descriptions

Fishing Conditions

Fish Species

Notes

Classic Trip List

The classic River Trips application is still available for use. It is updated with the new system using a data retrofit. It is no longer maintained. The original River Trips application is no longer updated (as of 1 Dec 2016) but can be checked for errors or for the condition of the data before it was converted to the new system.

Gauge Data Table

ObservationHeightDischargeMaximum
Discharge
Minimum
Discharge
Mean
Discharge
P05P10P20P25P50
(Median)
P75P80P90P95
2020-02-25 14:30 2.64 718 7970 (2018) 26 (1967) 922 54 143 242 287 511 995 1210 2070 3940
2020-02-25 13:30 2.64 718 7970 (2018) 26 (1967) 922 54 143 242 287 511 995 1210 2070 3940
2020-02-25 12:30 2.65 726 7970 (2018) 26 (1967) 922 54 143 242 287 511 995 1210 2070 3940
2020-02-25 11:30 2.66 734 7970 (2018) 26 (1967) 922 54 143 242 287 511 995 1210 2070 3940
2020-02-25 10:30 2.66 734 7970 (2018) 26 (1967) 922 54 143 242 287 511 995 1210 2070 3940
2020-02-25 09:30 2.67 741 7970 (2018) 26 (1967) 922 54 143 242 287 511 995 1210 2070 3940
2020-02-25 08:30 2.67 741 7970 (2018) 26 (1967) 922 54 143 242 287 511 995 1210 2070 3940
2020-02-25 07:30 2.69 757 7970 (2018) 26 (1967) 922 54 143 242 287 511 995 1210 2070 3940
2020-02-25 06:30 2.69 757 7970 (2018) 26 (1967) 922 54 143 242 287 511 995 1210 2070 3940
2020-02-25 05:30 2.70 766 7970 (2018) 26 (1967) 922 54 143 242 287 511 995 1210 2070 3940
2020-02-25 04:30 2.71 774 7970 (2018) 26 (1967) 922 54 143 242 287 511 995 1210 2070 3940
2020-02-25 03:30 2.72 782 7970 (2018) 26 (1967) 922 54 143 242 287 511 995 1210 2070 3940
2020-02-25 02:30 2.73 790 7970 (2018) 26 (1967) 922 54 143 242 287 511 995 1210 2070 3940
2020-02-25 01:30 2.73 790 7970 (2018) 26 (1967) 922 54 143 242 287 511 995 1210 2070 3940
2020-02-25 00:30 2.74 799 7970 (2018) 26 (1967) 922 54 143 242 287 511 995 1210 2070 3940
2020-02-24 23:30 2.74 799 8980 (1985) 27 (1967) 956 55 142 248 284 522 1080 1230 1860 3180
2020-02-24 22:30 2.74 799 8980 (1985) 27 (1967) 956 55 142 248 284 522 1080 1230 1860 3180
2020-02-24 21:30 2.73 790 8980 (1985) 27 (1967) 956 55 142 248 284 522 1080 1230 1860 3180
2020-02-24 20:30 2.72 782 8980 (1985) 27 (1967) 956 55 142 248 284 522 1080 1230 1860 3180
2020-02-24 19:30 2.71 774 8980 (1985) 27 (1967) 956 55 142 248 284 522 1080 1230 1860 3180
2020-02-24 18:30 2.71 774 8980 (1985) 27 (1967) 956 55 142 248 284 522 1080 1230 1860 3180
2020-02-24 17:30 2.70 766 8980 (1985) 27 (1967) 956 55 142 248 284 522 1080 1230 1860 3180
2020-02-24 16:30 2.70 766 8980 (1985) 27 (1967) 956 55 142 248 284 522 1080 1230 1860 3180
2020-02-24 15:30 2.69 757 8980 (1985) 27 (1967) 956 55 142 248 284 522 1080 1230 1860 3180
2020-02-24 14:30 2.68 749 8980 (1985) 27 (1967) 956 55 142 248 284 522 1080 1230 1860 3180
2020-02-24 13:30 2.66 734 8980 (1985) 27 (1967) 956 55 142 248 284 522 1080 1230 1860 3180
2020-02-24 12:30 2.65 726 8980 (1985) 27 (1967) 956 55 142 248 284 522 1080 1230 1860 3180
2020-02-24 11:30 2.63 711 8980 (1985) 27 (1967) 956 55 142 248 284 522 1080 1230 1860 3180
2020-02-24 10:30 2.61 696 8980 (1985) 27 (1967) 956 55 142 248 284 522 1080 1230 1860 3180
2020-02-24 09:30 2.59 681 8980 (1985) 27 (1967) 956 55 142 248 284 522 1080 1230 1860 3180
2020-02-24 08:30 2.58 674 8980 (1985) 27 (1967) 956 55 142 248 284 522 1080 1230 1860 3180
2020-02-24 07:30 2.57 666 8980 (1985) 27 (1967) 956 55 142 248 284 522 1080 1230 1860 3180
2020-02-24 06:30 2.56 659 8980 (1985) 27 (1967) 956 55 142 248 284 522 1080 1230 1860 3180
2020-02-24 05:30 2.55 652 8980 (1985) 27 (1967) 956 55 142 248 284 522 1080 1230 1860 3180
2020-02-24 04:30 2.55 652 8980 (1985) 27 (1967) 956 55 142 248 284 522 1080 1230 1860 3180
2020-02-24 03:30 2.54 645 8980 (1985) 27 (1967) 956 55 142 248 284 522 1080 1230 1860 3180
2020-02-24 02:30 2.54 645 8980 (1985) 27 (1967) 956 55 142 248 284 522 1080 1230 1860 3180
2020-02-24 01:30 2.53 638 8980 (1985) 27 (1967) 956 55 142 248 284 522 1080 1230 1860 3180
2020-02-24 00:30 2.52 631 8980 (1985) 27 (1967) 956 55 142 248 284 522 1080 1230 1860 3180
2020-02-23 23:30 2.51 624 36900 (1985) 28 (1967) 1360 55 142 247 274 537 1050 1160 2210 4970
2020-02-23 22:30 2.50 617 36900 (1985) 28 (1967) 1360 55 142 247 274 537 1050 1160 2210 4970
2020-02-23 21:30 2.49 610 36900 (1985) 28 (1967) 1360 55 142 247 274 537 1050 1160 2210 4970
2020-02-23 20:30 2.49 610 36900 (1985) 28 (1967) 1360 55 142 247 274 537 1050 1160 2210 4970
2020-02-23 19:30 2.49 610 36900 (1985) 28 (1967) 1360 55 142 247 274 537 1050 1160 2210 4970
2020-02-23 18:30 2.49 610 36900 (1985) 28 (1967) 1360 55 142 247 274 537 1050 1160 2210 4970
2020-02-23 17:30 2.49 610 36900 (1985) 28 (1967) 1360 55 142 247 274 537 1050 1160 2210 4970
2020-02-23 16:30 2.49 610 36900 (1985) 28 (1967) 1360 55 142 247 274 537 1050 1160 2210 4970
2020-02-23 15:30 2.49 610 36900 (1985) 28 (1967) 1360 55 142 247 274 537 1050 1160 2210 4970
2020-02-23 14:30 2.49 610 36900 (1985) 28 (1967) 1360 55 142 247 274 537 1050 1160 2210 4970
2020-02-23 13:30 2.49 610 36900 (1985) 28 (1967) 1360 55 142 247 274 537 1050 1160 2210 4970
2020-02-23 12:30 2.49 610 36900 (1985) 28 (1967) 1360 55 142 247 274 537 1050 1160 2210 4970
2020-02-23 11:30 2.50 617 36900 (1985) 28 (1967) 1360 55 142 247 274 537 1050 1160 2210 4970
2020-02-23 10:30 2.50 617 36900 (1985) 28 (1967) 1360 55 142 247 274 537 1050 1160 2210 4970
2020-02-23 09:30 2.50 617 36900 (1985) 28 (1967) 1360 55 142 247 274 537 1050 1160 2210 4970
2020-02-23 08:30 2.50 617 36900 (1985) 28 (1967) 1360 55 142 247 274 537 1050 1160 2210 4970
2020-02-23 07:30 2.51 624 36900 (1985) 28 (1967) 1360 55 142 247 274 537 1050 1160 2210 4970
2020-02-23 06:30 2.51 624 36900 (1985) 28 (1967) 1360 55 142 247 274 537 1050 1160 2210 4970
2020-02-23 05:30 2.51 624 36900 (1985) 28 (1967) 1360 55 142 247 274 537 1050 1160 2210 4970
2020-02-23 04:30 2.52 631 36900 (1985) 28 (1967) 1360 55 142 247 274 537 1050 1160 2210 4970
2020-02-23 03:30 2.52 631 36900 (1985) 28 (1967) 1360 55 142 247 274 537 1050 1160 2210 4970
2020-02-23 02:30 2.53 638 36900 (1985) 28 (1967) 1360 55 142 247 274 537 1050 1160 2210 4970
2020-02-23 01:30 2.53 638 36900 (1985) 28 (1967) 1360 55 142 247 274 537 1050 1160 2210 4970
2020-02-23 00:30 2.53 638 36900 (1985) 28 (1967) 1360 55 142 247 274 537 1050 1160 2210 4970
2020-02-22 23:30 2.54 645 6020 (1945) 30 (1967) 921 58 148 253 284 539 1080 1200 2050 3270
2020-02-22 22:30 2.54 645 6020 (1945) 30 (1967) 921 58 148 253 284 539 1080 1200 2050 3270
2020-02-22 21:30 2.54 645 6020 (1945) 30 (1967) 921 58 148 253 284 539 1080 1200 2050 3270
2020-02-22 20:30 2.55 652 6020 (1945) 30 (1967) 921 58 148 253 284 539 1080 1200 2050 3270
2020-02-22 19:30 2.55 652 6020 (1945) 30 (1967) 921 58 148 253 284 539 1080 1200 2050 3270
2020-02-22 18:30 2.56 659 6020 (1945) 30 (1967) 921 58 148 253 284 539 1080 1200 2050 3270
2020-02-22 17:30 2.56 659 6020 (1945) 30 (1967) 921 58 148 253 284 539 1080 1200 2050 3270
2020-02-22 16:30 2.56 659 6020 (1945) 30 (1967) 921 58 148 253 284 539 1080 1200 2050 3270
2020-02-22 15:30 2.57 666 6020 (1945) 30 (1967) 921 58 148 253 284 539 1080 1200 2050 3270
2020-02-22 14:30 2.57 666 6020 (1945) 30 (1967) 921 58 148 253 284 539 1080 1200 2050 3270
2020-02-22 13:30 2.57 666 6020 (1945) 30 (1967) 921 58 148 253 284 539 1080 1200 2050 3270
2020-02-22 12:30 2.57 666 6020 (1945) 30 (1967) 921 58 148 253 284 539 1080 1200 2050 3270
2020-02-22 11:30 2.58 674 6020 (1945) 30 (1967) 921 58 148 253 284 539 1080 1200 2050 3270
2020-02-22 10:30 2.58 674 6020 (1945) 30 (1967) 921 58 148 253 284 539 1080 1200 2050 3270
2020-02-22 09:30 2.58 674 6020 (1945) 30 (1967) 921 58 148 253 284 539 1080 1200 2050 3270
2020-02-22 08:30 2.59 681 6020 (1945) 30 (1967) 921 58 148 253 284 539 1080 1200 2050 3270
2020-02-22 07:30 2.59 681 6020 (1945) 30 (1967) 921 58 148 253 284 539 1080 1200 2050 3270
2020-02-22 06:30 2.60 688 6020 (1945) 30 (1967) 921 58 148 253 284 539 1080 1200 2050 3270
2020-02-22 05:30 2.60 688 6020 (1945) 30 (1967) 921 58 148 253 284 539 1080 1200 2050 3270
2020-02-22 04:30 2.61 696 6020 (1945) 30 (1967) 921 58 148 253 284 539 1080 1200 2050 3270
2020-02-22 03:30 2.61 696 6020 (1945) 30 (1967) 921 58 148 253 284 539 1080 1200 2050 3270
2020-02-22 02:30 2.62 703 6020 (1945) 30 (1967) 921 58 148 253 284 539 1080 1200 2050 3270
2020-02-22 01:30 2.62 703 6020 (1945) 30 (1967) 921 58 148 253 284 539 1080 1200 2050 3270
2020-02-22 00:30 2.63 711 6020 (1945) 30 (1967) 921 58 148 253 284 539 1080 1200 2050 3270
2020-02-21 23:30 2.63 711 21800 (1945) 33 (1967) 1140 64 153 240 275 496 881 1060 2330 3520
2020-02-21 22:30 2.64 718 21800 (1945) 33 (1967) 1140 64 153 240 275 496 881 1060 2330 3520
2020-02-21 21:30 2.65 726 21800 (1945) 33 (1967) 1140 64 153 240 275 496 881 1060 2330 3520
2020-02-21 20:30 2.65 726 21800 (1945) 33 (1967) 1140 64 153 240 275 496 881 1060 2330 3520
2020-02-21 19:30 2.66 734 21800 (1945) 33 (1967) 1140 64 153 240 275 496 881 1060 2330 3520
2020-02-21 18:30 2.66 734 21800 (1945) 33 (1967) 1140 64 153 240 275 496 881 1060 2330 3520
2020-02-21 17:30 2.67 741 21800 (1945) 33 (1967) 1140 64 153 240 275 496 881 1060 2330 3520
2020-02-21 16:30 2.68 749 21800 (1945) 33 (1967) 1140 64 153 240 275 496 881 1060 2330 3520
2020-02-21 15:30 2.68 749 21800 (1945) 33 (1967) 1140 64 153 240 275 496 881 1060 2330 3520
2020-02-21 14:30 2.69 757 21800 (1945) 33 (1967) 1140 64 153 240 275 496 881 1060 2330 3520
2020-02-21 13:30 2.69 757 21800 (1945) 33 (1967) 1140 64 153 240 275 496 881 1060 2330 3520
2020-02-21 12:30 2.70 766 21800 (1945) 33 (1967) 1140 64 153 240 275 496 881 1060 2330 3520
2020-02-21 11:30 2.70 766 21800 (1945) 33 (1967) 1140 64 153 240 275 496 881 1060 2330 3520
2020-02-21 10:30 2.71 774 21800 (1945) 33 (1967) 1140 64 153 240 275 496 881 1060 2330 3520
2020-02-21 09:30 2.71 774 21800 (1945) 33 (1967) 1140 64 153 240 275 496 881 1060 2330 3520
2020-02-21 08:30 2.72 782 21800 (1945) 33 (1967) 1140 64 153 240 275 496 881 1060 2330 3520
2020-02-21 07:30 2.73 790 21800 (1945) 33 (1967) 1140 64 153 240 275 496 881 1060 2330 3520
2020-02-21 06:30 2.73 790 21800 (1945) 33 (1967) 1140 64 153 240 275 496 881 1060 2330 3520
2020-02-21 05:30 2.74 799 21800 (1945) 33 (1967) 1140 64 153 240 275 496 881 1060 2330 3520
2020-02-21 04:30 2.75 807 21800 (1945) 33 (1967) 1140 64 153 240 275 496 881 1060 2330 3520
2020-02-21 03:30 2.76 816 21800 (1945) 33 (1967) 1140 64 153 240 275 496 881 1060 2330 3520
2020-02-21 02:30 2.76 816 21800 (1945) 33 (1967) 1140 64 153 240 275 496 881 1060 2330 3520
2020-02-21 01:30 2.77 824 21800 (1945) 33 (1967) 1140 64 153 240 275 496 881 1060 2330 3520
2020-02-21 00:30 2.78 833 21800 (1945) 33 (1967) 1140 64 153 240 275 496 881 1060 2330 3520
2020-02-20 23:30 2.78 833 11300 (1951) 34 (1967) 968 72 152 260 292 495 908 1210 1790 3480
2020-02-20 22:30 2.79 841 11300 (1951) 34 (1967) 968 72 152 260 292 495 908 1210 1790 3480
2020-02-20 21:30 2.80 850 11300 (1951) 34 (1967) 968 72 152 260 292 495 908 1210 1790 3480
2020-02-20 20:30 2.81 859 11300 (1951) 34 (1967) 968 72 152 260 292 495 908 1210 1790 3480
2020-02-20 19:30 2.82 868 11300 (1951) 34 (1967) 968 72 152 260 292 495 908 1210 1790 3480
2020-02-20 18:30 2.82 868 11300 (1951) 34 (1967) 968 72 152 260 292 495 908 1210 1790 3480
2020-02-20 17:30 2.83 877 11300 (1951) 34 (1967) 968 72 152 260 292 495 908 1210 1790 3480
2020-02-20 16:30 2.83 877 11300 (1951) 34 (1967) 968 72 152 260 292 495 908 1210 1790 3480
2020-02-20 15:30 2.84 886 11300 (1951) 34 (1967) 968 72 152 260 292 495 908 1210 1790 3480
2020-02-20 14:30 2.85 895 11300 (1951) 34 (1967) 968 72 152 260 292 495 908 1210 1790 3480
2020-02-20 13:30 2.85 895 11300 (1951) 34 (1967) 968 72 152 260 292 495 908 1210 1790 3480
2020-02-20 12:30 2.86 904 11300 (1951) 34 (1967) 968 72 152 260 292 495 908 1210 1790 3480
2020-02-20 11:30 2.86 904 11300 (1951) 34 (1967) 968 72 152 260 292 495 908 1210 1790 3480
2020-02-20 10:30 2.86 904 11300 (1951) 34 (1967) 968 72 152 260 292 495 908 1210 1790 3480
2020-02-20 09:30 2.87 913 11300 (1951) 34 (1967) 968 72 152 260 292 495 908 1210 1790 3480
2020-02-20 08:30 2.88 922 11300 (1951) 34 (1967) 968 72 152 260 292 495 908 1210 1790 3480
2020-02-20 07:30 2.88 922 11300 (1951) 34 (1967) 968 72 152 260 292 495 908 1210 1790 3480
2020-02-20 06:30 2.89 931 11300 (1951) 34 (1967) 968 72 152 260 292 495 908 1210 1790 3480
2020-02-20 05:30 2.90 941 11300 (1951) 34 (1967) 968 72 152 260 292 495 908 1210 1790 3480
2020-02-20 04:30 2.90 941 11300 (1951) 34 (1967) 968 72 152 260 292 495 908 1210 1790 3480
2020-02-20 03:30 2.91 950 11300 (1951) 34 (1967) 968 72 152 260 292 495 908 1210 1790 3480
2020-02-20 02:30 2.92 959 11300 (1951) 34 (1967) 968 72 152 260 292 495 908 1210 1790 3480
2020-02-20 01:30 2.93 969 11300 (1951) 34 (1967) 968 72 152 260 292 495 908 1210 1790 3480
2020-02-20 00:30 2.94 978 11300 (1951) 34 (1967) 968 72 152 260 292 495 908 1210 1790 3480
2020-02-19 23:30 2.95 988 7120 (1951) 34 (2006) 791 78 148 282 303 481 867 988 1820 2450
2020-02-19 22:30 2.95 988 7120 (1951) 34 (2006) 791 78 148 282 303 481 867 988 1820 2450
2020-02-19 21:30 2.96 998 7120 (1951) 34 (2006) 791 78 148 282 303 481 867 988 1820 2450
2020-02-19 20:30 2.97 1010 7120 (1951) 34 (2006) 791 78 148 282 303 481 867 988 1820 2450
2020-02-19 19:30 2.98 1020 7120 (1951) 34 (2006) 791 78 148 282 303 481 867 988 1820 2450
2020-02-19 18:30 2.99 1030 7120 (1951) 34 (2006) 791 78 148 282 303 481 867 988 1820 2450
2020-02-19 17:30 3.00 1040 7120 (1951) 34 (2006) 791 78 148 282 303 481 867 988 1820 2450
2020-02-19 16:30 3.01 1050 7120 (1951) 34 (2006) 791 78 148 282 303 481 867 988 1820 2450
2020-02-19 15:30 3.02 1060 7120 (1951) 34 (2006) 791 78 148 282 303 481 867 988 1820 2450
2020-02-19 14:30 3.03 1070 7120 (1951) 34 (2006) 791 78 148 282 303 481 867 988 1820 2450
2020-02-19 13:30 3.04 1080 7120 (1951) 34 (2006) 791 78 148 282 303 481 867 988 1820 2450
2020-02-19 12:30 3.05 1080 7120 (1951) 34 (2006) 791 78 148 282 303 481 867 988 1820 2450
2020-02-19 11:30 3.05 1080 7120 (1951) 34 (2006) 791 78 148 282 303 481 867 988 1820 2450
2020-02-19 10:30 3.07 1100 7120 (1951) 34 (2006) 791 78 148 282 303 481 867 988 1820 2450
2020-02-19 09:30 3.07 1100 7120 (1951) 34 (2006) 791 78 148 282 303 481 867 988 1820 2450
2020-02-19 08:30 3.08 1110 7120 (1951) 34 (2006) 791 78 148 282 303 481 867 988 1820 2450
2020-02-19 07:30 3.09 1110 7120 (1951) 34 (2006) 791 78 148 282 303 481 867 988 1820 2450
2020-02-19 06:30 3.10 1120 7120 (1951) 34 (2006) 791 78 148 282 303 481 867 988 1820 2450
2020-02-19 05:30 3.12 1140 7120 (1951) 34 (2006) 791 78 148 282 303 481 867 988 1820 2450
2020-02-19 04:30 3.13 1150 7120 (1951) 34 (2006) 791 78 148 282 303 481 867 988 1820 2450
2020-02-19 03:30 3.14 1150 7120 (1951) 34 (2006) 791 78 148 282 303 481 867 988 1820 2450
2020-02-19 02:30 3.15 1160 7120 (1951) 34 (2006) 791 78 148 282 303 481 867 988 1820 2450
2020-02-19 01:30 3.16 1170 7120 (1951) 34 (2006) 791 78 148 282 303 481 867 988 1820 2450
2020-02-19 00:30 3.17 1180 7120 (1951) 34 (2006) 791 78 148 282 303 481 867 988 1820 2450
2020-02-18 23:30 3.18 1180 14500 (1951) 36 (2006) 899 87 152 234 271 487 832 1020 1790 3400
2020-02-18 22:30 3.19 1190 14500 (1951) 36 (2006) 899 87 152 234 271 487 832 1020 1790 3400
2020-02-18 21:30 3.20 1200 14500 (1951) 36 (2006) 899 87 152 234 271 487 832 1020 1790 3400
2020-02-18 20:30 3.21 1210 14500 (1951) 36 (2006) 899 87 152 234 271 487 832 1020 1790 3400
2020-02-18 19:30 3.23 1220 14500 (1951) 36 (2006) 899 87 152 234 271 487 832 1020 1790 3400
2020-02-18 18:30 3.24 1230 14500 (1951) 36 (2006) 899 87 152 234 271 487 832 1020 1790 3400
2020-02-18 17:30 3.25 1240 14500 (1951) 36 (2006) 899 87 152 234 271 487 832 1020 1790 3400
2020-02-18 16:30 3.26 1250 14500 (1951) 36 (2006) 899 87 152 234 271 487 832 1020 1790 3400
2020-02-18 15:30 3.27 1260 14500 (1951) 36 (2006) 899 87 152 234 271 487 832 1020 1790 3400
2020-02-18 14:30 3.29 1270 14500 (1951) 36 (2006) 899 87 152 234 271 487 832 1020 1790 3400
2020-02-18 13:30 3.30 1280 14500 (1951) 36 (2006) 899 87 152 234 271 487 832 1020 1790 3400
2020-02-18 12:30 3.31 1290 14500 (1951) 36 (2006) 899 87 152 234 271 487 832 1020 1790 3400
2020-02-18 11:30 3.32 1300 14500 (1951) 36 (2006) 899 87 152 234 271 487 832 1020 1790 3400
2020-02-18 10:30 3.33 1300 14500 (1951) 36 (2006) 899 87 152 234 271 487 832 1020 1790 3400
2020-02-18 09:30 3.34 1310 14500 (1951) 36 (2006) 899 87 152 234 271 487 832 1020 1790 3400
2020-02-18 08:30 3.35 1320 14500 (1951) 36 (2006) 899 87 152 234 271 487 832 1020 1790 3400
2020-02-18 07:30 3.36 1330 14500 (1951) 36 (2006) 899 87 152 234 271 487 832 1020 1790 3400
2020-02-18 06:30 3.37 1340 14500 (1951) 36 (2006) 899 87 152 234 271 487 832 1020 1790 3400
2020-02-18 05:30 3.38 1350 14500 (1951) 36 (2006) 899 87 152 234 271 487 832 1020 1790 3400
2020-02-18 04:30 3.39 1350 14500 (1951) 36 (2006) 899 87 152 234 271 487 832 1020 1790 3400
2020-02-18 03:30 3.40 1360 14500 (1951) 36 (2006) 899 87 152 234 271 487 832 1020 1790 3400
2020-02-18 02:30 3.42 1380 14500 (1951) 36 (2006) 899 87 152 234 271 487 832 1020 1790 3400
2020-02-18 01:30 3.43 1390 14500 (1951) 36 (2006) 899 87 152 234 271 487 832 1020 1790 3400
2020-02-18 00:30 3.44 1400 14500 (1951) 36 (2006) 899 87 152 234 271 487 832 1020 1790 3400

A total of 183 rows are displayed for years 1939 through 2019.